sensor_id;sensor_type;location;lat;lon;timestamp;pressure;altitude;pressure_sealevel;temperature;humidity
6694;BME280;3384;42.628;23.380;2023-02-03T00:00:03;94369.97;;;5.13;100.00
6694;BME280;3384;42.628;23.380;2023-02-03T00:02:31;94369.97;;;5.18;100.00
6694;BME280;3384;42.628;23.380;2023-02-03T00:04:58;94376.22;;;4.67;100.00
6694;BME280;3384;42.628;23.380;2023-02-03T00:07:25;94367.50;;;4.86;100.00
6694;BME280;3384;42.628;23.380;2023-02-03T00:09:52;94381.06;;;4.75;100.00
6694;BME280;3384;42.628;23.380;2023-02-03T00:12:19;94389.50;;;4.62;100.00
6694;BME280;3384;42.628;23.380;2023-02-03T00:14:45;94372.78;;;4.66;100.00
6694;BME280;3384;42.628;23.380;2023-02-03T00:17:12;94384.50;;;4.90;100.00
6694;BME280;3384;42.628;23.380;2023-02-03T00:19:41;94385.91;;;5.23;100.00
6694;BME280;3384;42.628;23.380;2023-02-03T00:22:08;94385.22;;;4.51;100.00
6694;BME280;3384;42.628;23.380;2023-02-03T00:24:35;94387.41;;;4.69;100.00
6694;BME280;3384;42.628;23.380;2023-02-03T00:27:02;94379.94;;;4.71;100.00
6694;BME280;3384;42.628;23.380;2023-02-03T00:29:30;94379.47;;;4.84;100.00
6694;BME280;3384;42.628;23.380;2023-02-03T00:31:57;94393.31;;;5.06;100.00
6694;BME280;3384;42.628;23.380;2023-02-03T00:34:27;94382.16;;;4.99;100.00
6694;BME280;3384;42.628;23.380;2023-02-03T00:36:55;94388.53;;;4.98;100.00
6694;BME280;3384;42.628;23.380;2023-02-03T00:39:22;94400.00;;;5.18;100.00
6694;BME280;3384;42.628;23.380;2023-02-03T00:41:49;94401.09;;;5.32;100.00
6694;BME280;3384;42.628;23.380;2023-02-03T00:44:16;94402.41;;;5.20;100.00
6694;BME280;3384;42.628;23.380;2023-02-03T00:46:42;94413.53;;;5.17;100.00
6694;BME280;3384;42.628;23.380;2023-02-03T00:49:09;94405.84;;;5.20;100.00
6694;BME280;3384;42.628;23.380;2023-02-03T00:51:38;94412.25;;;5.64;100.00
6694;BME280;3384;42.628;23.380;2023-02-03T00:54:06;94403.75;;;5.42;100.00
6694;BME280;3384;42.628;23.380;2023-02-03T00:56:33;94404.78;;;5.26;100.00
6694;BME280;3384;42.628;23.380;2023-02-03T00:59:00;94423.13;;;5.43;100.00
6694;BME280;3384;42.628;23.380;2023-02-03T01:01:27;94409.84;;;5.53;100.00
6694;BME280;3384;42.628;23.380;2023-02-03T01:03:54;94416.63;;;4.84;100.00
6694;BME280;3384;42.628;23.380;2023-02-03T01:06:22;94421.56;;;5.67;100.00
6694;BME280;3384;42.628;23.380;2023-02-03T01:08:49;94425.00;;;5.52;100.00
6694;BME280;3384;42.628;23.380;2023-02-03T01:11:19;94427.38;;;5.24;100.00
6694;BME280;3384;42.628;23.380;2023-02-03T01:13:47;94438.53;;;5.26;100.00
6694;BME280;3384;42.628;23.380;2023-02-03T01:16:16;94429.16;;;4.98;100.00
6694;BME280;3384;42.628;23.380;2023-02-03T01:18:43;94421.31;;;4.57;100.00
6694;BME280;3384;42.628;23.380;2023-02-03T01:21:14;94421.72;;;4.95;100.00
6694;BME280;3384;42.628;23.380;2023-02-03T01:23:44;94426.03;;;5.16;100.00
6694;BME280;3384;42.628;23.380;2023-02-03T01:26:13;94425.50;;;5.24;100.00
6694;BME280;3384;42.628;23.380;2023-02-03T01:28:49;94417.47;;;4.99;100.00
6694;BME280;3384;42.628;23.380;2023-02-03T01:31:21;94416.03;;;4.67;100.00
6694;BME280;3384;42.628;23.380;2023-02-03T01:33:50;94409.75;;;4.88;100.00
6694;BME280;3384;42.628;23.380;2023-02-03T01:36:19;94407.50;;;4.55;100.00
6694;BME280;3384;42.628;23.380;2023-02-03T01:38:46;94419.06;;;4.29;100.00
6694;BME280;3384;42.628;23.380;2023-02-03T01:41:15;94411.28;;;4.74;100.00
6694;BME280;3384;42.628;23.380;2023-02-03T01:43:46;94436.44;;;4.56;100.00
6694;BME280;3384;42.628;23.380;2023-02-03T01:46:22;94441.03;;;4.24;100.00
6694;BME280;3384;42.628;23.380;2023-02-03T01:48:51;94444.03;;;4.94;100.00
6694;BME280;3384;42.628;23.380;2023-02-03T01:51:19;94443.03;;;4.44;100.00
6694;BME280;3384;42.628;23.380;2023-02-03T01:53:47;94462.97;;;4.10;100.00
6694;BME280;3384;42.628;23.380;2023-02-03T01:56:17;94448.22;;;4.85;100.00
6694;BME280;3384;42.628;23.380;2023-02-03T01:58:46;94444.44;;;4.15;100.00
6694;BME280;3384;42.628;23.380;2023-02-03T02:01:14;94441.41;;;4.38;100.00
6694;BME280;3384;42.628;23.380;2023-02-03T02:03:45;94453.09;;;4.47;100.00
6694;BME280;3384;42.628;23.380;2023-02-03T02:06:13;94458.13;;;4.43;100.00
6694;BME280;3384;42.628;23.380;2023-02-03T02:08:49;94446.84;;;4.16;100.00
6694;BME280;3384;42.628;23.380;2023-02-03T02:11:17;94460.53;;;4.45;100.00
6694;BME280;3384;42.628;23.380;2023-02-03T02:13:49;94458.53;;;4.72;100.00
6694;BME280;3384;42.628;23.380;2023-02-03T02:16:21;94465.59;;;4.51;100.00
6694;BME280;3384;42.628;23.380;2023-02-03T02:19:00;94460.63;;;4.65;100.00
6694;BME280;3384;42.628;23.380;2023-02-03T02:21:43;94447.34;;;4.60;100.00
6694;BME280;3384;42.628;23.380;2023-02-03T02:27:23;94482.84;;;4.49;100.00
6694;BME280;3384;42.628;23.380;2023-02-03T02:33:10;94462.06;;;4.36;100.00
6694;BME280;3384;42.628;23.380;2023-02-03T02:35:51;94459.78;;;4.49;100.00
6694;BME280;3384;42.628;23.380;2023-02-03T02:38:30;94467.59;;;4.81;100.00
6694;BME280;3384;42.628;23.380;2023-02-03T02:41:06;94476.91;;;4.32;100.00
6694;BME280;3384;42.628;23.380;2023-02-03T02:43:40;94473.41;;;4.73;100.00
6694;BME280;3384;42.628;23.380;2023-02-03T02:46:10;94471.34;;;4.38;100.00
6694;BME280;3384;42.628;23.380;2023-02-03T02:48:44;94465.91;;;4.55;100.00
6694;BME280;3384;42.628;23.380;2023-02-03T02:51:14;94463.69;;;4.00;100.00
6694;BME280;3384;42.628;23.380;2023-02-03T02:53:45;94454.53;;;4.18;100.00
6694;BME280;3384;42.628;23.380;2023-02-03T02:56:14;94461.03;;;4.42;100.00
6694;BME280;3384;42.628;23.380;2023-02-03T02:58:44;94459.66;;;4.34;100.00
6694;BME280;3384;42.628;23.380;2023-02-03T03:01:13;94454.69;;;4.43;100.00
6694;BME280;3384;42.628;23.380;2023-02-03T03:03:42;94458.13;;;4.43;100.00
6694;BME280;3384;42.628;23.380;2023-02-03T03:06:14;94467.00;;;4.17;100.00
6694;BME280;3384;42.628;23.380;2023-02-03T03:08:47;94490.81;;;4.54;100.00
6694;BME280;3384;42.628;23.380;2023-02-03T03:11:16;94464.16;;;4.29;100.00
6694;BME280;3384;42.628;23.380;2023-02-03T03:13:47;94464.81;;;4.51;100.00
6694;BME280;3384;42.628;23.380;2023-02-03T03:16:15;94491.47;;;4.29;100.00
6694;BME280;3384;42.628;23.380;2023-02-03T03:18:48;94484.22;;;4.15;100.00
6694;BME280;3384;42.628;23.380;2023-02-03T03:21:20;94497.38;;;4.36;100.00
6694;BME280;3384;42.628;23.380;2023-02-03T03:23:50;94493.31;;;4.24;100.00
6694;BME280;3384;42.628;23.380;2023-02-03T03:26:23;94487.56;;;4.37;100.00
6694;BME280;3384;42.628;23.380;2023-02-03T03:29:06;94495.25;;;4.38;100.00
6694;BME280;3384;42.628;23.380;2023-02-03T03:31:37;94480.22;;;4.07;100.00
6694;BME280;3384;42.628;23.380;2023-02-03T03:34:07;94515.66;;;3.70;100.00
6694;BME280;3384;42.628;23.380;2023-02-03T03:36:39;94493.75;;;3.79;100.00
6694;BME280;3384;42.628;23.380;2023-02-03T03:39:12;94501.25;;;3.87;100.00
6694;BME280;3384;42.628;23.380;2023-02-03T03:41:48;94509.16;;;4.14;100.00
6694;BME280;3384;42.628;23.380;2023-02-03T03:44:24;94512.31;;;3.79;100.00
6694;BME280;3384;42.628;23.380;2023-02-03T03:47:00;94519.09;;;3.97;100.00
6694;BME280;3384;42.628;23.380;2023-02-03T03:49:32;94522.22;;;3.89;100.00
6694;BME280;3384;42.628;23.380;2023-02-03T03:52:02;94532.75;;;3.84;100.00
6694;BME280;3384;42.628;23.380;2023-02-03T03:54:32;94510.13;;;4.03;100.00
6694;BME280;3384;42.628;23.380;2023-02-03T03:57:05;94546.75;;;3.79;100.00
6694;BME280;3384;42.628;23.380;2023-02-03T03:59:36;94518.69;;;4.15;100.00
6694;BME280;3384;42.628;23.380;2023-02-03T04:02:05;94509.63;;;4.47;100.00
6694;BME280;3384;42.628;23.380;2023-02-03T04:04:35;94513.94;;;4.58;100.00
6694;BME280;3384;42.628;23.380;2023-02-03T04:07:03;94522.72;;;4.64;97.04
6694;BME280;3384;42.628;23.380;2023-02-03T04:09:30;94542.75;;;4.40;99.11
6694;BME280;3384;42.628;23.380;2023-02-03T04:12:00;94554.78;;;4.52;100.00
6694;BME280;3384;42.628;23.380;2023-02-03T04:14:28;94551.03;;;4.48;100.00
6694;BME280;3384;42.628;23.380;2023-02-03T04:16:55;94536.25;;;4.62;100.00
6694;BME280;3384;42.628;23.380;2023-02-03T04:19:22;94549.19;;;4.54;100.00
6694;BME280;3384;42.628;23.380;2023-02-03T04:21:50;94538.56;;;3.81;100.00
6694;BME280;3384;42.628;23.380;2023-02-03T04:24:17;94565.75;;;3.98;100.00
6694;BME280;3384;42.628;23.380;2023-02-03T04:26:44;94561.78;;;3.69;100.00
6694;BME280;3384;42.628;23.380;2023-02-03T04:29:11;94563.59;;;4.58;100.00
6694;BME280;3384;42.628;23.380;2023-02-03T04:31:38;94571.19;;;4.86;100.00
6694;BME280;3384;42.628;23.380;2023-02-03T04:34:06;94565.50;;;4.67;100.00
6694;BME280;3384;42.628;23.380;2023-02-03T04:36:33;94578.53;;;4.37;100.00
6694;BME280;3384;42.628;23.380;2023-02-03T04:39:01;94569.81;;;4.37;100.00
6694;BME280;3384;42.628;23.380;2023-02-03T04:41:28;94566.16;;;4.48;100.00
6694;BME280;3384;42.628;23.380;2023-02-03T04:43:55;94571.25;;;4.54;100.00
6694;BME280;3384;42.628;23.380;2023-02-03T04:46:24;94578.38;;;4.49;100.00
6694;BME280;3384;42.628;23.380;2023-02-03T04:48:51;94582.88;;;4.48;100.00
6694;BME280;3384;42.628;23.380;2023-02-03T04:51:18;94586.25;;;4.39;100.00
6694;BME280;3384;42.628;23.380;2023-02-03T04:53:44;94599.13;;;3.94;100.00
6694;BME280;3384;42.628;23.380;2023-02-03T04:56:12;94597.13;;;4.06;100.00
6694;BME280;3384;42.628;23.380;2023-02-03T04:58:40;94588.25;;;4.22;100.00
6694;BME280;3384;42.628;23.380;2023-02-03T05:01:07;94596.19;;;4.53;100.00
6694;BME280;3384;42.628;23.380;2023-02-03T05:03:34;94611.97;;;4.38;100.00
6694;BME280;3384;42.628;23.380;2023-02-03T05:06:02;94601.78;;;4.57;100.00
6694;BME280;3384;42.628;23.380;2023-02-03T05:08:30;94590.47;;;4.35;100.00
6694;BME280;3384;42.628;23.380;2023-02-03T05:10:59;94601.44;;;4.48;100.00
6694;BME280;3384;42.628;23.380;2023-02-03T05:13:27;94613.41;;;4.19;100.00
6694;BME280;3384;42.628;23.380;2023-02-03T05:15:54;94608.16;;;4.61;100.00
6694;BME280;3384;42.628;23.380;2023-02-03T05:18:21;94643.16;;;4.53;100.00
6694;BME280;3384;42.628;23.380;2023-02-03T05:20:48;94601.84;;;4.67;100.00
6694;BME280;3384;42.628;23.380;2023-02-03T05:23:15;94623.13;;;4.35;100.00
6694;BME280;3384;42.628;23.380;2023-02-03T05:25:42;94632.78;;;4.20;100.00
6694;BME280;3384;42.628;23.380;2023-02-03T05:28:10;94619.97;;;4.75;100.00
6694;BME280;3384;42.628;23.380;2023-02-03T05:30:38;94621.84;;;4.79;100.00
6694;BME280;3384;42.628;23.380;2023-02-03T05:33:05;94622.28;;;4.30;100.00
6694;BME280;3384;42.628;23.380;2023-02-03T05:35:32;94622.41;;;4.45;100.00
6694;BME280;3384;42.628;23.380;2023-02-03T05:37:59;94623.69;;;4.11;100.00
6694;BME280;3384;42.628;23.380;2023-02-03T05:40:26;94612.84;;;4.17;100.00
6694;BME280;3384;42.628;23.380;2023-02-03T05:43:10;94621.75;;;4.33;100.00
6694;BME280;3384;42.628;23.380;2023-02-03T05:45:38;94620.00;;;4.43;100.00
6694;BME280;3384;42.628;23.380;2023-02-03T05:48:06;94631.50;;;4.22;100.00
6694;BME280;3384;42.628;23.380;2023-02-03T05:50:33;94647.16;;;4.24;100.00
6694;BME280;3384;42.628;23.380;2023-02-03T05:53:02;94633.78;;;4.14;100.00
6694;BME280;3384;42.628;23.380;2023-02-03T05:55:30;94632.63;;;4.05;100.00
6694;BME280;3384;42.628;23.380;2023-02-03T05:57:57;94632.72;;;4.15;100.00
6694;BME280;3384;42.628;23.380;2023-02-03T06:00:26;94627.47;;;3.93;100.00
6694;BME280;3384;42.628;23.380;2023-02-03T06:02:55;94622.84;;;4.05;100.00
6694;BME280;3384;42.628;23.380;2023-02-03T06:05:23;94642.75;;;3.81;100.00
6694;BME280;3384;42.628;23.380;2023-02-03T06:07:50;94633.56;;;3.89;100.00
6694;BME280;3384;42.628;23.380;2023-02-03T06:10:17;94632.69;;;4.10;100.00
6694;BME280;3384;42.628;23.380;2023-02-03T06:12:44;94625.94;;;4.24;100.00
6694;BME280;3384;42.628;23.380;2023-02-03T06:15:11;94639.22;;;4.29;100.00
6694;BME280;3384;42.628;23.380;2023-02-03T06:17:38;94634.06;;;4.17;100.00
6694;BME280;3384;42.628;23.380;2023-02-03T06:20:11;94661.19;;;4.24;100.00
6694;BME280;3384;42.628;23.380;2023-02-03T06:22:38;94632.06;;;4.29;100.00
6694;BME280;3384;42.628;23.380;2023-02-03T06:25:06;94637.31;;;4.24;100.00
6694;BME280;3384;42.628;23.380;2023-02-03T06:27:33;94656.00;;;4.08;100.00
6694;BME280;3384;42.628;23.380;2023-02-03T06:30:00;94653.50;;;4.23;100.00
6694;BME280;3384;42.628;23.380;2023-02-03T06:32:27;94661.41;;;4.18;100.00
6694;BME280;3384;42.628;23.380;2023-02-03T06:34:54;94652.41;;;3.92;100.00
6694;BME280;3384;42.628;23.380;2023-02-03T06:37:22;94678.63;;;3.89;100.00
6694;BME280;3384;42.628;23.380;2023-02-03T06:39:50;94673.00;;;4.12;100.00
6694;BME280;3384;42.628;23.380;2023-02-03T06:42:16;94660.53;;;4.39;98.42
6694;BME280;3384;42.628;23.380;2023-02-03T06:44:43;94662.00;;;3.72;100.00
6694;BME280;3384;42.628;23.380;2023-02-03T06:47:10;94667.56;;;3.97;100.00
6694;BME280;3384;42.628;23.380;2023-02-03T06:49:37;94682.72;;;3.75;100.00
6694;BME280;3384;42.628;23.380;2023-02-03T06:52:04;94652.22;;;4.25;95.56
6694;BME280;3384;42.628;23.380;2023-02-03T06:54:32;94688.75;;;4.18;95.71
6694;BME280;3384;42.628;23.380;2023-02-03T06:56:58;94663.91;;;4.61;92.84
6694;BME280;3384;42.628;23.380;2023-02-03T06:59:25;94667.16;;;4.36;92.53
6694;BME280;3384;42.628;23.380;2023-02-03T07:01:52;94679.94;;;4.13;94.11
6694;BME280;3384;42.628;23.380;2023-02-03T07:04:19;94684.56;;;4.01;96.48
6694;BME280;3384;42.628;23.380;2023-02-03T07:06:46;94665.72;;;4.24;95.25
6694;BME280;3384;42.628;23.380;2023-02-03T07:09:13;94655.28;;;4.17;96.56
6694;BME280;3384;42.628;23.380;2023-02-03T07:11:41;94694.53;;;3.89;98.72
6694;BME280;3384;42.628;23.380;2023-02-03T07:14:08;94649.81;;;4.24;96.39
6694;BME280;3384;42.628;23.380;2023-02-03T07:16:35;94684.22;;;4.19;98.09
6694;BME280;3384;42.628;23.380;2023-02-03T07:19:02;94677.31;;;3.91;98.78
6694;BME280;3384;42.628;23.380;2023-02-03T07:21:29;94655.84;;;3.93;98.17
6694;BME280;3384;42.628;23.380;2023-02-03T07:23:55;94684.06;;;3.77;97.35
6694;BME280;3384;42.628;23.380;2023-02-03T07:26:22;94671.41;;;4.11;94.57
6694;BME280;3384;42.628;23.380;2023-02-03T07:28:55;94699.53;;;4.12;92.83
6694;BME280;3384;42.628;23.380;2023-02-03T07:31:24;94667.34;;;3.77;92.33
6694;BME280;3384;42.628;23.380;2023-02-03T07:33:51;94692.03;;;4.04;90.95
6694;BME280;3384;42.628;23.380;2023-02-03T07:36:18;94689.03;;;3.74;93.45
6694;BME280;3384;42.628;23.380;2023-02-03T07:38:44;94692.00;;;3.77;92.46
6694;BME280;3384;42.628;23.380;2023-02-03T07:41:11;94692.53;;;4.01;90.06
6694;BME280;3384;42.628;23.380;2023-02-03T07:43:38;94697.19;;;4.42;89.47
6694;BME280;3384;42.628;23.380;2023-02-03T07:46:06;94700.06;;;4.35;88.61
6694;BME280;3384;42.628;23.380;2023-02-03T07:48:33;94726.38;;;3.94;90.97
6694;BME280;3384;42.628;23.380;2023-02-03T07:51:00;94728.38;;;4.30;89.30
6694;BME280;3384;42.628;23.380;2023-02-03T07:53:26;94711.69;;;4.08;90.80
6694;BME280;3384;42.628;23.380;2023-02-03T07:55:53;94708.25;;;4.34;89.80
6694;BME280;3384;42.628;23.380;2023-02-03T07:58:20;94697.47;;;4.19;89.91
6694;BME280;3384;42.628;23.380;2023-02-03T08:00:47;94693.03;;;4.24;91.65
6694;BME280;3384;42.628;23.380;2023-02-03T08:03:15;94699.22;;;4.61;88.32
6694;BME280;3384;42.628;23.380;2023-02-03T08:05:42;94740.75;;;3.98;92.74
6694;BME280;3384;42.628;23.380;2023-02-03T08:08:09;94696.38;;;3.67;95.70
6694;BME280;3384;42.628;23.380;2023-02-03T08:10:36;94698.72;;;3.85;94.58
6694;BME280;3384;42.628;23.380;2023-02-03T08:13:03;94677.72;;;4.58;91.68
6694;BME280;3384;42.628;23.380;2023-02-03T08:15:32;94738.66;;;4.21;90.68
6694;BME280;3384;42.628;23.380;2023-02-03T08:17:59;94707.19;;;3.82;95.12
6694;BME280;3384;42.628;23.380;2023-02-03T08:20:27;94708.94;;;3.98;96.53
6694;BME280;3384;42.628;23.380;2023-02-03T08:22:54;94712.78;;;4.38;88.69
6694;BME280;3384;42.628;23.380;2023-02-03T08:25:21;94730.44;;;4.81;85.18
6694;BME280;3384;42.628;23.380;2023-02-03T08:27:48;94714.06;;;4.04;88.07
6694;BME280;3384;42.628;23.380;2023-02-03T08:30:15;94712.25;;;4.94;84.99
6694;BME280;3384;42.628;23.380;2023-02-03T08:32:42;94730.53;;;4.91;84.29
6694;BME280;3384;42.628;23.380;2023-02-03T08:35:09;94718.41;;;5.00;83.79
6694;BME280;3384;42.628;23.380;2023-02-03T08:37:37;94728.63;;;4.86;82.59
6694;BME280;3384;42.628;23.380;2023-02-03T08:40:05;94732.19;;;5.02;81.78
6694;BME280;3384;42.628;23.380;2023-02-03T08:42:32;94728.44;;;4.35;86.63
6694;BME280;3384;42.628;23.380;2023-02-03T08:44:59;94754.81;;;4.20;83.12
6694;BME280;3384;42.628;23.380;2023-02-03T08:47:28;94755.66;;;4.52;81.76
6694;BME280;3384;42.628;23.380;2023-02-03T08:49:55;94731.28;;;4.55;81.61
6694;BME280;3384;42.628;23.380;2023-02-03T08:52:21;94736.41;;;4.93;79.90
6694;BME280;3384;42.628;23.380;2023-02-03T08:54:50;94754.06;;;4.51;83.20
6694;BME280;3384;42.628;23.380;2023-02-03T08:57:17;94742.84;;;4.70;83.05
6694;BME280;3384;42.628;23.380;2023-02-03T08:59:45;94754.00;;;5.35;79.95
6694;BME280;3384;42.628;23.380;2023-02-03T09:02:14;94761.88;;;4.89;81.77
6694;BME280;3384;42.628;23.380;2023-02-03T09:04:42;94777.31;;;4.97;81.25
6694;BME280;3384;42.628;23.380;2023-02-03T09:07:09;94750.34;;;4.25;85.77
6694;BME280;3384;42.628;23.380;2023-02-03T09:09:37;94766.88;;;4.85;85.22
6694;BME280;3384;42.628;23.380;2023-02-03T09:12:06;94749.50;;;4.20;92.41
6694;BME280;3384;42.628;23.380;2023-02-03T09:17:55;94728.31;;;5.14;84.79
6694;BME280;3384;42.628;23.380;2023-02-03T09:20:22;94734.75;;;5.23;84.64
6694;BME280;3384;42.628;23.380;2023-02-03T09:22:50;94742.03;;;5.38;86.28
6694;BME280;3384;42.628;23.380;2023-02-03T09:25:19;94718.56;;;5.30;84.73
6694;BME280;3384;42.628;23.380;2023-02-03T09:27:47;94706.03;;;5.67;84.24
6694;BME280;3384;42.628;23.380;2023-02-03T09:30:14;94703.84;;;5.54;83.72
6694;BME280;3384;42.628;23.380;2023-02-03T09:32:41;94698.44;;;5.39;85.10
6694;BME280;3384;42.628;23.380;2023-02-03T09:35:08;94728.06;;;5.16;84.86
6694;BME280;3384;42.628;23.380;2023-02-03T09:37:35;94719.88;;;4.86;87.90
6694;BME280;3384;42.628;23.380;2023-02-03T09:40:02;94728.97;;;4.95;85.58
6694;BME280;3384;42.628;23.380;2023-02-03T09:43:00;94752.41;;;5.03;82.88
6694;BME280;3384;42.628;23.380;2023-02-03T09:45:30;94742.97;;;5.17;83.12
6694;BME280;3384;42.628;23.380;2023-02-03T09:48:02;94742.72;;;5.23;81.53
6694;BME280;3384;42.628;23.380;2023-02-03T09:50:32;94740.50;;;5.10;81.59
6694;BME280;3384;42.628;23.380;2023-02-03T09:53:04;94741.25;;;5.06;79.86
6694;BME280;3384;42.628;23.380;2023-02-03T09:55:36;94774.09;;;4.95;78.66
6694;BME280;3384;42.628;23.380;2023-02-03T09:58:09;94721.97;;;5.15;78.83
6694;BME280;3384;42.628;23.380;2023-02-03T10:00:41;94719.56;;;5.14;78.64
6694;BME280;3384;42.628;23.380;2023-02-03T10:03:15;94709.94;;;5.49;74.28
6694;BME280;3384;42.628;23.380;2023-02-03T10:05:55;94735.69;;;5.07;73.95
6694;BME280;3384;42.628;23.380;2023-02-03T10:08:31;94739.06;;;5.29;76.25
6694;BME280;3384;42.628;23.380;2023-02-03T10:11:07;94712.66;;;5.18;76.83
6694;BME280;3384;42.628;23.380;2023-02-03T10:13:46;94754.28;;;5.07;75.76
6694;BME280;3384;42.628;23.380;2023-02-03T10:16:44;94730.06;;;5.35;76.17
6694;BME280;3384;42.628;23.380;2023-02-03T10:19:17;94712.50;;;5.34;76.09
6694;BME280;3384;42.628;23.380;2023-02-03T10:21:48;94727.44;;;5.92;74.76
6694;BME280;3384;42.628;23.380;2023-02-03T10:24:23;94714.47;;;5.54;75.77
6694;BME280;3384;42.628;23.380;2023-02-03T10:26:52;94747.78;;;5.66;75.76
6694;BME280;3384;42.628;23.380;2023-02-03T10:29:26;94704.66;;;6.11;74.60
6694;BME280;3384;42.628;23.380;2023-02-03T10:31:57;94704.94;;;5.58;74.91
6694;BME280;3384;42.628;23.380;2023-02-03T10:34:24;94723.78;;;6.03;72.12
6694;BME280;3384;42.628;23.380;2023-02-03T10:36:54;94703.41;;;5.72;73.73
6694;BME280;3384;42.628;23.380;2023-02-03T10:39:28;94714.41;;;5.02;74.55
6694;BME280;3384;42.628;23.380;2023-02-03T10:41:57;94711.97;;;5.79;67.40
6694;BME280;3384;42.628;23.380;2023-02-03T10:44:30;94697.16;;;5.98;66.50
6694;BME280;3384;42.628;23.380;2023-02-03T10:47:01;94720.06;;;5.11;70.46
6694;BME280;3384;42.628;23.380;2023-02-03T10:49:28;94699.06;;;5.09;70.33
6694;BME280;3384;42.628;23.380;2023-02-03T10:51:59;94720.84;;;5.48;70.70
6694;BME280;3384;42.628;23.380;2023-02-03T10:54:31;94697.56;;;4.87;72.58
6694;BME280;3384;42.628;23.380;2023-02-03T10:57:02;94710.34;;;5.78;70.00
6694;BME280;3384;42.628;23.380;2023-02-03T10:59:34;94714.00;;;6.29;69.05
6694;BME280;3384;42.628;23.380;2023-02-03T11:02:07;94721.41;;;6.12;69.17
6694;BME280;3384;42.628;23.380;2023-02-03T11:04:36;94710.84;;;5.70;68.97
6694;BME280;3384;42.628;23.380;2023-02-03T11:07:05;94732.34;;;6.20;66.88
6694;BME280;3384;42.628;23.380;2023-02-03T11:09:34;94725.84;;;5.91;66.68
6694;BME280;3384;42.628;23.380;2023-02-03T11:12:07;94712.09;;;6.09;65.75
6694;BME280;3384;42.628;23.380;2023-02-03T11:14:38;94707.50;;;5.38;66.07
6694;BME280;3384;42.628;23.380;2023-02-03T11:17:13;94697.88;;;5.84;63.92
6694;BME280;3384;42.628;23.380;2023-02-03T11:19:42;94696.72;;;5.69;61.19
6694;BME280;3384;42.628;23.380;2023-02-03T11:22:11;94690.75;;;5.94;59.77
6694;BME280;3384;42.628;23.380;2023-02-03T11:24:40;94713.00;;;5.78;60.66
6694;BME280;3384;42.628;23.380;2023-02-03T11:27:10;94681.78;;;5.53;62.62
6694;BME280;3384;42.628;23.380;2023-02-03T11:29:43;94669.84;;;6.33;62.10
6694;BME280;3384;42.628;23.380;2023-02-03T11:32:17;94672.03;;;5.74;64.55
6694;BME280;3384;42.628;23.380;2023-02-03T11:34:52;94660.03;;;5.66;65.40
6694;BME280;3384;42.628;23.380;2023-02-03T11:37:30;94665.22;;;5.93;64.27
6694;BME280;3384;42.628;23.380;2023-02-03T11:40:16;94672.25;;;5.57;62.59
6694;BME280;3384;42.628;23.380;2023-02-03T11:42:59;94677.91;;;4.83;66.27
6694;BME280;3384;42.628;23.380;2023-02-03T11:45:29;94651.44;;;5.39;64.89
6694;BME280;3384;42.628;23.380;2023-02-03T11:50:46;94648.00;;;5.54;65.68
6694;BME280;3384;42.628;23.380;2023-02-03T11:53:23;94645.47;;;5.79;62.53
6694;BME280;3384;42.628;23.380;2023-02-03T11:56:04;94637.91;;;6.33;61.40
6694;BME280;3384;42.628;23.380;2023-02-03T11:58:59;94654.16;;;6.31;60.70
6694;BME280;3384;42.628;23.380;2023-02-03T12:01:44;94662.66;;;6.33;60.91
6694;BME280;3384;42.628;23.380;2023-02-03T12:04:27;94663.38;;;5.99;60.47
6694;BME280;3384;42.628;23.380;2023-02-03T12:07:18;94659.34;;;5.91;59.32
6694;BME280;3384;42.628;23.380;2023-02-03T12:09:55;94664.16;;;5.99;60.13
6694;BME280;3384;42.628;23.380;2023-02-03T12:12:34;94654.66;;;6.23;59.96
6694;BME280;3384;42.628;23.380;2023-02-03T12:15:15;94655.56;;;5.72;59.37
6694;BME280;3384;42.628;23.380;2023-02-03T12:18:08;94638.25;;;5.64;57.28
6694;BME280;3384;42.628;23.380;2023-02-03T12:20:57;94666.41;;;5.65;57.69
6694;BME280;3384;42.628;23.380;2023-02-03T12:23:34;94688.06;;;5.84;58.41
6694;BME280;3384;42.628;23.380;2023-02-03T12:26:14;94676.38;;;5.90;56.61
6694;BME280;3384;42.628;23.380;2023-02-03T12:28:54;94663.59;;;5.87;56.23
6694;BME280;3384;42.628;23.380;2023-02-03T12:31:29;94651.28;;;5.71;56.78
6694;BME280;3384;42.628;23.380;2023-02-03T12:34:07;94669.78;;;5.41;55.38
6694;BME280;3384;42.628;23.380;2023-02-03T12:36:39;94646.41;;;5.48;54.94
6694;BME280;3384;42.628;23.380;2023-02-03T12:39:11;94639.53;;;5.57;54.71
6694;BME280;3384;42.628;23.380;2023-02-03T12:41:45;94617.84;;;5.85;54.84
6694;BME280;3384;42.628;23.380;2023-02-03T12:44:17;94621.13;;;5.40;55.62
6694;BME280;3384;42.628;23.380;2023-02-03T12:46:49;94615.84;;;5.55;56.48
6694;BME280;3384;42.628;23.380;2023-02-03T12:49:28;94604.81;;;5.84;56.08
6694;BME280;3384;42.628;23.380;2023-02-03T12:52:00;94614.16;;;5.86;56.49
6694;BME280;3384;42.628;23.380;2023-02-03T12:54:37;94647.13;;;5.90;56.16
6694;BME280;3384;42.628;23.380;2023-02-03T12:57:18;94618.56;;;5.60;56.66
6694;BME280;3384;42.628;23.380;2023-02-03T12:59:56;94601.81;;;5.70;58.09
6694;BME280;3384;42.628;23.380;2023-02-03T13:02:27;94598.19;;;5.91;58.02
6694;BME280;3384;42.628;23.380;2023-02-03T13:05:01;94603.94;;;5.68;58.73
6694;BME280;3384;42.628;23.380;2023-02-03T13:07:36;94602.22;;;6.09;58.74
6694;BME280;3384;42.628;23.380;2023-02-03T13:10:13;94598.66;;;5.78;59.40
6694;BME280;3384;42.628;23.380;2023-02-03T13:12:45;94606.38;;;5.79;58.51
6694;BME280;3384;42.628;23.380;2023-02-03T13:15:21;94604.03;;;5.88;59.23
6694;BME280;3384;42.628;23.380;2023-02-03T13:17:54;94601.78;;;5.60;60.83
6694;BME280;3384;42.628;23.380;2023-02-03T13:20:25;94599.53;;;5.89;61.08
6694;BME280;3384;42.628;23.380;2023-02-03T13:22:53;94598.75;;;6.03;61.65
6694;BME280;3384;42.628;23.380;2023-02-03T13:25:24;94620.16;;;5.61;62.67
6694;BME280;3384;42.628;23.380;2023-02-03T13:28:01;94602.91;;;5.69;63.26
6694;BME280;3384;42.628;23.380;2023-02-03T13:31:01;94594.66;;;5.75;63.78
6694;BME280;3384;42.628;23.380;2023-02-03T13:36:45;94600.59;;;5.93;65.01
6694;BME280;3384;42.628;23.380;2023-02-03T13:39:35;94598.34;;;5.64;66.52
6694;BME280;3384;42.628;23.380;2023-02-03T13:42:22;94623.16;;;5.23;67.03
6694;BME280;3384;42.628;23.380;2023-02-03T13:44:53;94594.63;;;5.60;67.07
6694;BME280;3384;42.628;23.380;2023-02-03T13:47:23;94590.94;;;5.71;66.90
6694;BME280;3384;42.628;23.380;2023-02-03T13:49:54;94595.25;;;5.83;65.97